Time;durP1;ratioP1;P1;durP2;ratioP2;P2;SDS_P1;SDS_P2;PMS_P1;PMS_P2;Temp;Humidity;BMP_temperature;BMP_pressure;BME280_temperature;BME280_humidity;BME280_pressure;Samples;Min_cycle;Max_cycle;Signal;HPM_P1;HPM_P2
2023/10/07 00:02:13;;;;;;;3.35;1.35;;;;;;;16.30;100.00;100740.94;5030328;28;20033;-85
2023/10/07 00:04:39;;;;;;;7.22;2.03;;;;;;;16.29;100.00;100757.28;5027148;28;20056;-85
2023/10/07 00:07:10;;;;;;;4.78;1.80;;;;;;;16.18;100.00;100753.31;5029716;28;20064;-86
2023/10/07 00:09:44;;;;;;;10.57;2.15;;;;;;;16.21;100.00;100755.59;5031085;28;20073;-84
2023/10/07 00:12:15;;;;;;;11.38;2.00;;;;;;;16.20;100.00;100757.47;5030224;28;20080;-84
2023/10/07 00:14:41;;;;;;;10.23;2.65;;;;;;;16.27;100.00;100759.34;5029912;28;20131;-85
2023/10/07 00:17:17;;;;;;;10.40;2.55;;;;;;;16.14;100.00;100757.44;5020472;28;20112;-86
2023/10/07 00:19:47;;;;;;;5.93;2.38;;;;;;;16.12;100.00;100768.41;5011751;28;20041;-86
2023/10/07 00:22:14;;;;;;;12.77;2.33;;;;;;;16.13;100.00;100764.69;5014221;28;20041;-88
2023/10/07 00:24:43;;;;;;;11.65;3.35;;;;;;;16.12;100.00;100778.34;5029808;28;20041;-87
2023/10/07 00:27:26;;;;;;;14.20;3.60;;;;;;;16.06;100.00;100758.44;5029496;28;20036;-86
2023/10/07 00:29:55;;;;;;;17.30;4.10;;;;;;;16.02;100.00;100763.38;5009256;28;20096;-85
2023/10/07 00:32:27;;;;;;;18.60;3.03;;;;;;;15.88;100.00;100747.34;5010625;28;20022;-87
2023/10/07 00:34:55;;;;;;;13.38;4.25;;;;;;;15.88;100.00;100750.84;5021432;28;20039;-85
2023/10/07 00:37:21;;;;;;;12.35;2.95;;;;;;;15.82;100.00;100741.69;5020865;28;20075;-84
2023/10/07 00:39:46;;;;;;;15.85;3.15;;;;;;;15.81;100.00;100752.69;5030221;28;20034;-85
2023/10/07 00:42:12;;;;;;;14.65;3.13;;;;;;;15.79;100.00;100749.34;5012702;28;20511;-86
2023/10/07 00:44:39;;;;;;;17.30;3.95;;;;;;;15.73;100.00;100744.72;5025970;28;20053;-86
2023/10/07 00:49:42;;;;;;;18.20;4.13;;;;;;;15.69;100.00;100740.75;5042137;28;19925;-86
2023/10/07 00:52:25;;;;;;;21.40;4.75;;;;;;;15.58;100.00;100742.94;5028710;28;20041;-85
2023/10/07 00:54:58;;;;;;;20.75;4.72;;;;;;;15.57;100.00;100745.84;5030123;28;20120;-83
2023/10/07 00:57:24;;;;;;;25.58;5.20;;;;;;;15.58;100.00;100742.94;5028735;28;20025;-86
2023/10/07 00:59:51;;;;;;;21.20;5.30;;;;;;;15.58;100.00;100742.13;5012064;28;20013;-85
2023/10/07 01:02:39;;;;;;;17.98;4.80;;;;;;;15.53;100.00;100737.31;5028765;28;20462;-84
2023/10/07 01:05:06;;;;;;;20.65;5.38;;;;;;;15.51;100.00;100752.81;5021687;28;20470;-84
2023/10/07 01:07:34;;;;;;;34.45;5.45;;;;;;;15.53;100.00;100737.31;5008659;28;20046;-86
2023/10/07 01:12:42;;;;;;;25.50;4.88;;;;;;;15.45;100.00;100728.56;5026400;28;20040;-86
2023/10/07 01:15:26;;;;;;;25.70;4.05;;;;;;;15.48;100.00;100761.31;5011851;28;20075;-86
2023/10/07 01:18:14;;;;;;;27.05;4.53;;;;;;;15.48;100.00;100764.00;5011431;28;20476;-85
2023/10/07 01:21:10;;;;;;;21.80;4.20;;;;;;;15.28;100.00;100766.50;5026654;28;20073;-84
2023/10/07 01:23:33;;;;;;;31.50;5.00;;;;;;;15.28;100.00;100758.41;5027502;28;20042;-85
2023/10/07 01:25:59;;;;;;;29.42;4.93;;;;;;;15.41;100.00;100755.03;5027787;28;20067;-84
2023/10/07 01:28:32;;;;;;;25.33;4.50;;;;;;;15.41;100.00;100745.09;5023801;28;20073;-84
2023/10/07 01:31:18;;;;;;;27.33;5.50;;;;;;;15.47;100.00;100740.78;5020059;28;20121;-84
2023/10/07 01:33:47;;;;;;;22.92;4.68;;;;;;;15.39;100.00;100735.56;5026468;28;20030;-84
2023/10/07 01:36:20;;;;;;;32.90;5.38;;;;;;;15.37;100.00;100738.44;5027836;28;20025;-86
2023/10/07 01:38:51;;;;;;;21.60;4.47;;;;;;;15.46;100.00;100720.31;5026643;28;20041;-84
2023/10/07 01:41:21;;;;;;;26.92;5.50;;;;;;;15.36;100.00;100719.81;5011069;28;20033;-84
2023/10/07 01:43:58;;;;;;;24.95;5.07;;;;;;;15.33;100.00;100725.56;5027133;28;20036;-85
2023/10/07 01:46:32;;;;;;;24.42;5.28;;;;;;;15.27;100.00;100732.56;5016332;28;20041;-86
2023/10/07 01:49:12;;;;;;;24.13;5.03;;;;;;;15.29;100.00;100743.09;5016926;28;20034;-85
2023/10/07 01:51:44;;;;;;;23.30;4.47;;;;;;;15.23;100.00;100735.84;5025564;28;20484;-85
2023/10/07 01:54:11;;;;;;;23.35;4.25;;;;;;;15.02;100.00;100717.84;5011104;28;20113;-84
2023/10/07 01:56:38;;;;;;;24.13;4.32;;;;;;;14.94;100.00;100711.56;5006301;28;20056;-88
2023/10/07 02:01:43;;;;;;;25.42;3.88;;;;;;;14.96;100.00;100708.69;5026995;28;20033;-84
2023/10/07 02:04:18;;;;;;;17.15;3.33;;;;;;;15.07;100.00;100716.22;5010322;28;20041;-86
2023/10/07 02:06:52;;;;;;;22.13;5.00;;;;;;;15.05;100.00;100702.16;5026980;28;20041;-83
2023/10/07 02:09:25;;;;;;;23.98;3.92;;;;;;;15.06;100.00;100705.69;5010435;28;20029;-84
2023/10/07 02:12:01;;;;;;;28.48;4.90;;;;;;;15.04;100.00;100705.88;5027556;28;20087;-84
2023/10/07 02:14:27;;;;;;;;;;;;;;;15.15;100.00;100704.53;5040813;28;20488;-85
2023/10/07 02:16:56;;;;;;;34.28;4.95;;;;;;;15.04;100.00;100708.56;5012187;28;20372;-86
2023/10/07 02:19:34;;;;;;;26.35;5.05;;;;;;;15.05;100.00;100709.38;5010956;28;20389;-84
2023/10/07 02:22:03;;;;;;;16.50;3.58;;;;;;;14.90;100.00;100699.53;5020575;28;20038;-83
2023/10/07 02:24:32;;;;;;;27.02;5.13;;;;;;;14.95;100.00;100701.66;5028110;28;20029;-86
2023/10/07 02:27:25;;;;;;;30.52;4.03;;;;;;;15.02;100.00;100705.22;5007673;28;20030;-85
2023/10/07 02:29:48;;;;;;;17.67;3.47;;;;;;;14.97;100.00;100705.81;5029422;28;20045;-86
2023/10/07 02:32:14;;;;;;;28.70;5.97;;;;;;;14.94;100.00;100702.69;5030888;28;20375;-86
2023/10/07 02:34:51;;;;;;;;;;;;;;;14.86;100.00;100714.38;5032660;28;20854;-83
2023/10/07 02:37:21;;;;;;;21.05;5.18;;;;;;;14.81;100.00;100722.19;5030742;28;19971;-86
2023/10/07 02:39:48;;;;;;;26.38;4.40;;;;;;;14.75;100.00;100723.78;5030459;28;20053;-85
2023/10/07 02:42:21;;;;;;;27.08;4.22;;;;;;;14.87;100.00;100717.91;5030460;28;20026;-82
2023/10/07 02:44:54;;;;;;;23.80;4.45;;;;;;;14.91;100.00;100716.50;5014360;28;20033;-84
2023/10/07 02:47:20;;;;;;;21.15;4.20;;;;;;;14.85;100.00;100707.34;5031643;28;20061;-86
2023/10/07 02:49:49;;;;;;;;;;;;;;;14.83;100.00;100687.91;5028925;28;20064;-84
2023/10/07 02:52:17;;;;;;;30.00;3.95;;;;;;;14.84;100.00;100700.28;5031317;28;19912;-84
2023/10/07 02:54:43;;;;;;;33.00;4.75;;;;;;;14.72;100.00;100691.91;5027539;28;20037;-87
2023/10/07 02:57:21;;;;;;;24.23;4.13;;;;;;;14.76;100.00;100701.25;5030485;28;20029;-84
2023/10/07 03:00:00;;;;;;;23.75;4.03;;;;;;;14.82;100.00;100688.06;5030187;28;20064;-85
2023/10/07 03:02:48;;;;;;;25.35;4.05;;;;;;;14.77;100.00;100678.75;5030679;28;20034;-86
2023/10/07 03:05:14;;;;;;;22.98;3.38;;;;;;;14.74;100.00;100667.53;5014021;28;20102;-86
2023/10/07 03:07:49;;;;;;;20.05;4.65;;;;;;;14.83;100.00;100676.31;5030087;28;20472;-86
2023/10/07 03:10:43;;;;;;;24.13;4.20;;;;;;;14.76;100.00;100662.81;5030186;28;20065;-86
2023/10/07 03:13:09;;;;;;;21.67;4.35;;;;;;;14.68;100.00;100658.41;5024155;28;20036;-85
2023/10/07 03:18:02;;;;;;;25.13;3.95;;;;;;;14.71;100.00;100654.50;5030608;28;20083;-83
2023/10/07 03:20:46;;;;;;;25.60;5.22;;;;;;;14.49;100.00;100650.91;5026654;28;20553;-85
2023/10/07 03:23:15;;;;;;;22.33;3.58;;;;;;;14.53;100.00;100655.72;5024503;28;20033;-87
2023/10/07 03:28:36;;;;;;;33.95;5.07;;;;;;;14.61;100.00;100668.25;5020873;28;20534;-84
2023/10/07 03:31:10;;;;;;;22.77;3.78;;;;;;;14.48;100.00;100631.28;5012873;28;20032;-87
2023/10/07 03:33:53;;;;;;;24.42;5.03;;;;;;;14.57;100.00;100666.97;5021453;28;20037;-84
2023/10/07 03:38:55;;;;;;;25.27;5.20;;;;;;;14.65;100.00;100692.88;5028260;28;20037;-86
2023/10/07 03:41:22;;;;;;;33.08;5.20;;;;;;;14.59;100.00;100683.72;5029690;28;20072;-86
2023/10/07 03:43:47;;;;;;;29.38;4.25;;;;;;;14.57;100.00;100683.09;5026058;28;20040;-85
2023/10/07 03:46:16;;;;;;;24.27;4.03;;;;;;;14.61;100.00;100687.06;5014800;28;20037;-86
2023/10/07 03:48:49;;;;;;;23.27;3.95;;;;;;;14.54;100.00;100680.78;5013938;28;20587;-86
2023/10/07 03:51:15;;;;;;;20.65;3.40;;;;;;;14.51;100.00;100699.91;5029723;28;20041;-85
2023/10/07 03:53:46;;;;;;;28.53;5.23;;;;;;;14.40;100.00;100698.56;5029355;28;20029;-83
2023/10/07 03:56:13;;;;;;;26.85;3.85;;;;;;;14.21;100.00;100683.03;5029617;28;20026;-85
2023/10/07 03:58:41;;;;;;;33.10;5.10;;;;;;;14.29;100.00;100710.63;5024669;28;20029;-86
2023/10/07 04:01:17;;;;;;;26.05;6.75;;;;;;;14.42;100.00;100727.91;5012819;28;20029;-86
2023/10/07 04:03:50;;;;;;;33.33;4.40;;;;;;;14.42;100.00;100739.50;5029099;28;20034;-86
2023/10/07 04:06:17;;;;;;;28.75;4.28;;;;;;;14.44;100.00;100752.72;5029232;28;20595;-85
2023/10/07 04:08:56;;;;;;;16.88;3.90;;;;;;;14.44;100.00;100748.19;5024071;28;20033;-87
2023/10/07 04:11:28;;;;;;;33.83;5.32;;;;;;;14.44;100.00;100744.66;5019649;28;20112;-86
2023/10/07 04:13:55;;;;;;;30.90;6.03;;;;;;;14.29;100.00;100745.53;5016248;28;20079;-86
2023/10/07 04:16:24;;;;;;;25.40;4.35;;;;;;;14.35;100.00;100763.59;5024870;28;20070;-85
2023/10/07 04:19:06;;;;;;;31.98;5.30;;;;;;;14.37;100.00;100782.19;5030081;28;20758;-85
2023/10/07 04:21:39;;;;;;;33.10;4.80;;;;;;;14.36;100.00;100757.19;5025403;28;20041;-82
2023/10/07 04:24:12;;;;;;;30.27;4.70;;;;;;;14.36;100.00;100775.16;5028955;28;20117;-86
2023/10/07 04:26:44;;;;;;;24.35;3.90;;;;;;;14.27;100.00;100770.91;5030085;28;20060;-86
2023/10/07 04:29:21;;;;;;;33.75;5.15;;;;;;;14.38;100.00;100788.41;5028439;28;20903;-84
2023/10/07 04:31:52;;;;;;;25.83;5.60;;;;;;;14.38;100.00;100801.84;5028764;28;20033;-86
2023/10/07 04:34:18;;;;;;;16.90;2.92;;;;;;;14.28;100.00;100788.66;5017403;28;20087;-86
2023/10/07 04:39:37;;;;;;;26.50;4.63;;;;;;;14.27;100.00;100785.16;5029389;28;20503;-86
2023/10/07 04:42:07;;;;;;;26.00;4.38;;;;;;;14.33;100.00;100783.59;5028451;28;20499;-86
2023/10/07 04:47:29;;;;;;;24.10;3.88;;;;;;;14.22;100.00;100784.88;5039836;28;20025;-86
2023/10/07 04:52:28;;;;;;;31.13;3.70;;;;;;;14.07;100.00;100805.50;5029166;28;20131;-85
2023/10/07 04:54:58;;;;;;;21.00;3.42;;;;;;;14.19;100.00;100841.66;5011573;28;20045;-85
2023/10/07 04:57:56;;;;;;;20.40;4.22;;;;;;;14.15;100.00;100843.03;5028157;28;20029;-85
2023/10/07 05:03:00;;;;;;;26.67;3.38;;;;;;;14.27;100.00;100816.56;5045253;28;20041;-83
2023/10/07 05:05:30;;;;;;;23.67;4.35;;;;;;;14.16;100.00;100817.84;5023872;28;20029;-87
2023/10/07 05:08:17;;;;;;;27.70;4.00;;;;;;;14.15;100.00;100813.50;5027440;28;20060;-85
2023/10/07 05:10:43;;;;;;;27.13;4.07;;;;;;;14.10;100.00;100830.16;5023644;28;20088;-87
2023/10/07 05:13:10;;;;;;;30.38;3.83;;;;;;;14.04;100.00;100838.09;5018814;28;20026;-87
2023/10/07 05:15:41;;;;;;;22.88;3.85;;;;;;;13.91;100.00;100844.94;5011659;28;20041;-85
2023/10/07 05:18:13;;;;;;;26.50;5.13;;;;;;;13.89;100.00;100849.66;5010183;28;20033;-87
2023/10/07 05:20:41;;;;;;;30.13;4.82;;;;;;;13.83;100.00;100861.09;5027960;28;20037;-87
2023/10/07 05:23:07;;;;;;;46.50;5.25;;;;;;;13.76;100.00;100873.56;5019889;28;20109;-86
2023/10/07 05:25:35;;;;;;;35.88;5.18;;;;;;;13.96;100.00;100879.28;5028269;28;20051;-85
2023/10/07 05:28:11;;;;;;;23.73;4.38;;;;;;;13.94;100.00;100859.84;5003523;28;20028;-86
2023/10/07 05:30:37;;;;;;;30.38;4.30;;;;;;;13.90;100.00;100842.44;5021775;28;20040;-85
2023/10/07 05:33:08;;;;;;;33.35;6.47;;;;;;;13.82;100.00;100851.38;5023325;28;20516;-87
2023/10/07 05:35:37;;;;;;;30.10;4.38;;;;;;;13.70;100.00;100845.63;5027981;28;20466;-83
2023/10/07 05:38:09;;;;;;;30.65;6.47;;;;;;;13.76;100.00;100829.81;5027643;28;20021;-85
2023/10/07 05:40:37;;;;;;;30.92;3.92;;;;;;;13.86;100.00;100831.25;5041603;23;20041;-75
2023/10/07 05:43:06;;;;;;;31.17;4.25;;;;;;;13.78;100.00;100820.56;5026644;28;20030;-76
2023/10/07 05:45:33;;;;;;;32.03;5.35;;;;;;;13.82;100.00;100831.78;5027799;28;20018;-76
2023/10/07 05:47:59;;;;;;;21.10;3.53;;;;;;;13.92;100.00;100819.75;5026745;28;20034;-76
2023/10/07 05:50:27;;;;;;;24.92;3.97;;;;;;;13.91;100.00;100823.47;5040656;28;20543;-74
2023/10/07 05:52:53;;;;;;;27.00;4.93;;;;;;;14.01;100.00;100833.09;5037614;28;20099;-76
2023/10/07 05:55:18;;;;;;;38.72;3.45;;;;;;;13.90;100.00;100832.50;5046056;28;20056;-77
2023/10/07 05:57:43;;;;;;;22.27;4.30;;;;;;;13.88;100.00;100839.09;5048963;28;20449;-77
2023/10/07 06:00:09;;;;;;;26.17;4.70;;;;;;;13.88;100.00;100839.94;5047725;28;20039;-78
2023/10/07 06:02:37;;;;;;;32.20;4.80;;;;;;;13.98;100.00;100847.72;5044923;28;20033;-79
2023/10/07 06:05:10;;;;;;;27.88;4.03;;;;;;;13.83;100.00;100845.00;5046115;28;20064;-77
2023/10/07 06:07:39;;;;;;;38.70;5.60;;;;;;;13.82;100.00;100847.88;5048933;28;20338;-77
2023/10/07 06:10:09;;;;;;;23.58;4.63;;;;;;;13.82;100.00;100854.06;5040637;28;20027;-78
2023/10/07 06:12:35;;;;;;;29.02;4.32;;;;;;;13.88;100.00;100861.41;5047529;28;20021;-77
2023/10/07 06:15:00;;;;;;;21.00;3.90;;;;;;;13.87;100.00;100850.84;5045545;28;20395;-77
2023/10/07 06:17:26;;;;;;;35.90;5.93;;;;;;;13.91;100.00;100847.63;5047639;28;20072;-77
2023/10/07 06:19:52;;;;;;;26.70;4.75;;;;;;;13.92;100.00;100861.88;5048650;28;20124;-76
2023/10/07 06:22:17;;;;;;;38.65;4.47;;;;;;;13.83;100.00;100866.47;5048874;28;20033;-76
2023/10/07 06:24:43;;;;;;;24.33;4.13;;;;;;;13.94;100.00;100865.22;5047513;28;20483;-76
2023/10/07 06:27:12;;;;;;;;;;;;;;;13.98;100.00;100866.53;5046751;28;20033;-77
2023/10/07 06:29:43;;;;;;;24.20;3.60;;;;;;;14.01;100.00;100870.69;5044192;28;19912;-78
2023/10/07 06:32:25;;;;;;;28.02;4.75;;;;;;;13.85;100.00;100874.34;5048483;28;20029;-77
2023/10/07 06:34:56;;;;;;;23.73;4.38;;;;;;;13.83;100.00;100879.88;5043197;28;20098;-77
2023/10/07 06:37:28;;;;;;;19.58;3.58;;;;;;;13.94;100.00;100890.19;5048081;28;20119;-77
2023/10/07 06:39:54;;;;;;;28.88;4.80;;;;;;;13.96;100.00;100883.81;5043733;28;20037;-77
2023/10/07 06:42:24;;;;;;;30.05;5.65;;;;;;;13.88;100.00;100880.19;5043641;28;20029;-77
2023/10/07 06:44:58;;;;;;;28.38;3.75;;;;;;;13.90;100.00;100893.41;5048710;28;20140;-77
2023/10/07 06:47:29;;;;;;;20.48;4.30;;;;;;;13.94;100.00;100892.88;5041193;28;20025;-77
2023/10/07 06:49:56;;;;;;;21.65;4.22;;;;;;;13.85;100.00;100893.97;5048846;28;20060;-76
2023/10/07 06:52:22;;;;;;;30.88;4.70;;;;;;;13.82;100.00;100888.97;5048719;28;20021;-77
2023/10/07 06:54:48;;;;;;;27.38;4.78;;;;;;;13.89;100.00;100903.31;5047263;28;20032;-77
2023/10/07 06:57:14;;;;;;;26.83;3.78;;;;;;;13.89;100.00;100913.22;5048071;28;20047;-77
2023/10/07 06:59:45;;;;;;;22.87;4.43;;;;;;;13.78;100.00;100924.38;5047483;28;20041;-77
2023/10/07 07:02:16;;;;;;;24.73;3.40;;;;;;;13.83;100.00;100940.78;5048316;28;20369;-78
2023/10/07 07:04:42;;;;;;;22.85;3.80;;;;;;;13.77;100.00;100944.19;5041294;28;20116;-78
2023/10/07 07:07:10;;;;;;;22.57;4.00;;;;;;;13.56;100.00;100934.94;5047598;28;20387;-77
2023/10/07 07:12:16;;;;;;;20.73;3.38;;;;;;;13.44;100.00;100955.97;5051810;28;20029;-77
2023/10/07 07:14:50;;;;;;;16.45;3.83;;;;;;;13.43;100.00;100974.91;5049080;28;20064;-78
2023/10/07 07:20:29;;;;;;;11.18;2.55;;;;;;;13.37;100.00;100986.31;5010555;28;20104;-77
2023/10/07 07:22:58;;;;;;;28.50;3.50;;;;;;;13.16;100.00;100979.69;5046311;28;20095;-79
2023/10/07 07:27:52;;;;;;;19.95;3.05;;;;;;;13.22;100.00;100987.03;5050904;28;20033;-78
2023/10/07 07:30:31;;;;;;;21.30;2.95;;;;;;;13.01;100.00;100979.56;5049860;28;20029;-83
2023/10/07 07:33:06;;;;;;;18.38;2.78;;;;;;;12.98;100.00;100979.91;5036943;28;20029;-83
2023/10/07 07:35:39;;;;;;;19.50;3.33;;;;;;;13.01;100.00;100987.59;5043887;28;20047;-84
2023/10/07 07:38:31;;;;;;;15.70;2.80;;;;;;;12.84;100.00;100975.28;5039381;28;20033;-83
2023/10/07 07:41:26;;;;;;;16.08;2.85;;;;;;;12.61;100.00;100980.50;5049100;28;20041;-82
2023/10/07 07:43:53;;;;;;;12.05;2.00;;;;;;;12.85;100.00;101003.72;5049583;28;20041;-83
2023/10/07 07:46:26;;;;;;;19.40;3.25;;;;;;;12.89;100.00;100991.66;5049734;28;20024;-83
2023/10/07 07:49:06;;;;;;;13.50;2.28;;;;;;;12.85;100.00;100987.66;5049276;28;20075;-83
2023/10/07 07:51:39;;;;;;;22.75;2.53;;;;;;;12.80;100.00;100981.97;5049996;28;20035;-82
2023/10/07 07:54:08;;;;;;;12.20;2.50;;;;;;;12.94;100.00;100985.78;5048330;28;20135;-82
2023/10/07 07:56:35;;;;;;;14.05;2.47;;;;;;;13.14;100.00;100994.28;5042229;28;20064;-83
2023/10/07 07:59:06;;;;;;;20.48;2.53;;;;;;;13.14;100.00;100987.06;5048808;28;20048;-83
2023/10/07 08:01:32;;;;;;;13.05;2.03;;;;;;;13.24;100.00;100998.41;5049642;28;20045;-82
2023/10/07 08:04:09;;;;;;;19.83;2.70;;;;;;;13.19;100.00;100991.91;5055313;28;20025;-83
2023/10/07 08:06:34;;;;;;;14.55;3.10;;;;;;;12.80;100.00;100981.97;5047235;28;20124;-82
2023/10/07 08:09:02;;;;;;;17.38;3.72;;;;;;;12.78;100.00;100984.84;5049907;28;20111;-82
2023/10/07 08:11:27;;;;;;;21.83;3.08;;;;;;;12.81;100.00;100999.72;5062371;28;20040;-82
2023/10/07 08:13:53;;;;;;;22.97;2.27;;;;;;;12.84;100.00;100997.53;5048662;28;20018;-83
2023/10/07 08:16:19;;;;;;;14.90;2.47;;;;;;;12.84;100.00;100994.03;5049846;28;20025;-83
2023/10/07 08:18:48;;;;;;;12.60;2.22;;;;;;;12.88;100.00;101004.22;5049567;28;20384;-83
2023/10/07 08:21:14;;;;;;;10.93;2.90;;;;;;;12.87;100.00;100999.84;5049794;28;20506;-82
2023/10/07 08:23:51;;;;;;;22.93;4.00;;;;;;;12.93;100.00;100987.63;5049926;28;20017;-82
2023/10/07 08:26:23;;;;;;;12.27;2.20;;;;;;;13.08;100.00;100995.78;5039880;28;20400;-83
2023/10/07 08:31:37;;;;;;;14.15;2.35;;;;;;;13.06;100.00;100998.66;5051374;28;20499;-81
2023/10/07 08:36:36;;;;;;;14.77;2.53;;;;;;;13.28;100.00;101005.13;5051632;28;20039;-80
2023/10/07 08:39:06;;;;;;;15.27;2.10;;;;;;;13.38;100.00;100999.56;5045092;28;20013;-81
2023/10/07 08:41:32;;;;;;;17.73;2.90;;;;;;;13.38;100.00;101007.59;5033371;28;20083;-81
2023/10/07 08:44:17;;;;;;;13.10;2.90;;;;;;;13.33;100.00;100996.56;5049884;28;20023;-83
2023/10/07 08:46:54;;;;;;;14.25;2.30;;;;;;;13.27;100.00;100997.22;5048345;28;20570;-82
2023/10/07 08:49:27;;;;;;;16.98;3.25;;;;;;;13.33;100.00;100995.75;5037378;28;20116;-83
2023/10/07 08:51:56;;;;;;;15.00;2.72;;;;;;;13.40;100.00;100986.81;5049677;28;20033;-83
2023/10/07 08:54:26;;;;;;;23.48;2.92;;;;;;;13.50;100.00;101000.84;5049857;28;20391;-83
2023/10/07 08:57:09;;;;;;;17.33;2.65;;;;;;;13.52;100.00;100996.13;5046486;28;20506;-81
2023/10/07 08:59:35;;;;;;;15.35;2.92;;;;;;;13.54;100.00;100990.59;5038298;28;20110;-85
2023/10/07 09:02:01;;;;;;;22.67;3.25;;;;;;;13.44;100.00;100981.94;5047318;28;20028;-80
2023/10/07 09:04:33;;;;;;;15.07;2.07;;;;;;;13.51;100.00;100977.56;5043442;28;20407;-82
2023/10/07 09:07:08;;;;;;;11.20;2.13;;;;;;;13.61;100.00;100972.78;5038383;28;20037;-80
2023/10/07 09:09:38;;;;;;;7.97;2.25;;;;;;;13.46;100.00;100955.75;5044260;28;20446;-83
2023/10/07 09:12:11;;;;;;;10.38;2.03;;;;;;;13.44;100.00;100949.75;5038027;28;20369;-82
2023/10/07 09:14:41;;;;;;;10.43;2.45;;;;;;;13.49;100.00;100958.94;5043307;28;20045;-82
2023/10/07 09:17:09;;;;;;;15.73;2.05;;;;;;;13.61;100.00;100966.59;5043352;28;20021;-82
2023/10/07 09:19:36;;;;;;;10.52;2.05;;;;;;;13.60;100.00;100962.22;5039360;28;20041;-83
2023/10/07 09:22:10;;;;;;;9.65;1.63;;;;;;;13.63;100.00;100959.22;5039041;28;20028;-82
2023/10/07 09:24:41;;;;;;;8.73;2.65;;;;;;;13.61;100.00;100945.13;5044642;28;20067;-83
2023/10/07 09:27:11;;;;;;;11.00;1.67;;;;;;;13.25;100.00;100933.06;5043646;28;20086;-82
2023/10/07 09:29:37;;;;;;;13.13;2.22;;;;;;;13.54;100.00;100954.91;5043465;28;20025;-82
2023/10/07 09:32:06;;;;;;;;;;;;;;;13.69;100.00;100966.53;5047185;28;20037;-82
2023/10/07 09:34:47;;;;;;;6.50;1.58;;;;;;;13.69;100.00;100964.66;5054132;28;20394;-83
2023/10/07 09:37:17;;;;;;;15.45;2.78;;;;;;;13.63;100.00;100954.66;5048755;28;20079;-81
2023/10/07 09:39:44;;;;;;;11.80;1.65;;;;;;;13.65;100.00;100957.16;5043687;28;20063;-82
2023/10/07 09:42:35;;;;;;;;;;;;;;;13.65;100.00;100962.53;5047855;28;20902;-83
2023/10/07 09:45:10;;;;;;;13.60;2.53;;;;;;;13.59;100.00;100964.06;5052897;28;19916;-81
2023/10/07 09:47:38;;;;;;;11.73;1.48;;;;;;;13.45;100.00;100956.78;5036117;28;20040;-81
2023/10/07 09:53:17;;;;;;;9.63;2.58;;;;;;;13.37;100.00;100959.50;5047954;28;20044;-82
2023/10/07 09:55:56;;;;;;;13.57;1.83;;;;;;;13.32;100.00;100962.69;5034618;28;20045;-84
2023/10/07 09:58:41;;;;;;;10.23;2.05;;;;;;;13.33;100.00;100975.13;5064832;28;20111;-82
2023/10/07 10:01:37;;;;;;;9.25;1.98;;;;;;;13.33;100.00;100971.59;5052705;28;20450;-82
2023/10/07 10:04:21;;;;;;;10.80;1.70;;;;;;;13.38;100.00;100982.63;5043665;28;20101;-83
2023/10/07 10:07:00;;;;;;;10.48;1.70;;;;;;;13.64;100.00;100993.88;5048148;28;20037;-82
2023/10/07 10:09:42;;;;;;;14.13;2.72;;;;;;;13.41;100.00;100975.06;5053379;28;20056;-82
2023/10/07 10:12:27;;;;;;;13.48;2.42;;;;;;;13.54;100.00;100984.41;5045093;28;20043;-83
2023/10/07 10:15:50;;;;;;;10.05;2.45;;;;;;;13.38;100.00;100975.41;5052778;28;20223;-84
2023/10/07 10:17:53;;;;;;;13.18;2.35;;;;;;;13.37;100.00;100979.13;5049113;28;20043;-81
2023/10/07 10:20:27;;;;;;;11.60;2.20;;;;;;;13.51;100.00;100989.09;5048320;28;20020;-83
2023/10/07 10:22:57;;;;;;;10.23;1.70;;;;;;;13.69;100.00;101001.41;5041460;28;20029;-83
2023/10/07 10:25:39;;;;;;;13.52;2.15;;;;;;;13.59;100.00;100987.38;5050440;28;20463;-81
2023/10/07 10:28:08;;;;;;;9.70;2.40;;;;;;;13.56;100.00;100985.91;5047638;28;20032;-81
2023/10/07 10:30:45;;;;;;;9.95;2.30;;;;;;;13.67;100.00;100990.00;5054309;28;20063;-82
2023/10/07 10:33:19;;;;;;;11.20;2.35;;;;;;;13.58;100.00;100994.63;5047345;28;20045;-83
2023/10/07 10:35:49;;;;;;;10.77;2.97;;;;;;;13.39;100.00;100974.44;5051483;28;20075;-84
2023/10/07 10:38:14;;;;;;;24.67;2.85;;;;;;;13.41;100.00;100987.63;5042049;28;20028;-82
2023/10/07 10:40:45;;;;;;;16.00;2.80;;;;;;;13.43;100.00;100999.88;5047388;28;20133;-81
2023/10/07 10:43:22;;;;;;;10.50;2.25;;;;;;;13.36;100.00;101004.25;5043477;28;20090;-83
2023/10/07 10:45:47;;;;;;;18.95;2.90;;;;;;;13.31;100.00;100998.59;5047302;28;20057;-82
2023/10/07 10:48:14;;;;;;;14.23;3.47;;;;;;;13.30;100.00;101007.66;5022167;28;20064;-82
2023/10/07 10:50:40;;;;;;;18.20;3.03;;;;;;;13.22;100.00;101004.97;5044908;28;20052;-81
2023/10/07 10:53:06;;;;;;;11.57;2.70;;;;;;;13.16;100.00;101011.84;5045313;28;20012;-82
2023/10/07 10:55:35;;;;;;;;;;;;;;;13.20;100.00;101007.81;5036822;28;20037;-82
2023/10/07 10:58:00;;;;;;;14.93;3.25;;;;;;;13.13;100.00;101008.69;5056535;28;19958;-82
2023/10/07 11:00:28;;;;;;;17.53;3.10;;;;;;;13.32;100.00;101018.19;5045572;28;20064;-83
2023/10/07 11:02:55;;;;;;;9.48;2.70;;;;;;;13.37;100.00;101019.34;5049944;28;20064;-82
2023/10/07 11:05:21;;;;;;;11.77;3.08;;;;;;;12.94;100.00;101002.69;5051641;28;20058;-83
2023/10/07 11:07:49;;;;;;;21.30;2.70;;;;;;;12.97;100.00;101012.22;5049150;28;20037;-82
2023/10/07 11:10:22;;;;;;;12.18;2.63;;;;;;;13.20;100.00;101021.19;5049436;28;20497;-82
2023/10/07 11:12:52;;;;;;;14.90;3.85;;;;;;;13.16;100.00;101016.38;5050112;28;20059;-83
2023/10/07 11:15:24;;;;;;;15.68;2.92;;;;;;;13.00;100.00;100998.50;5051236;28;20029;-84
2023/10/07 11:18:11;;;;;;;25.23;3.30;;;;;;;12.98;100.00;100987.94;5047639;28;20574;-83
2023/10/07 11:20:39;;;;;;;16.42;3.35;;;;;;;13.09;100.00;100998.31;5067283;28;20036;-84
2023/10/07 11:23:06;;;;;;;8.35;2.42;;;;;;;13.17;100.00;101008.16;5051097;28;20415;-84
2023/10/07 11:25:33;;;;;;;21.20;3.80;;;;;;;13.20;100.00;101015.00;5048811;28;20561;-83
2023/10/07 11:27:59;;;;;;;15.75;3.25;;;;;;;13.33;100.00;101023.38;5041482;28;20028;-83
2023/10/07 11:30:24;;;;;;;24.27;3.97;;;;;;;13.29;100.00;101017.53;5042157;28;20036;-83
2023/10/07 11:32:49;;;;;;;18.93;3.10;;;;;;;13.27;100.00;101021.34;5043689;28;20265;-82
2023/10/07 11:35:27;;;;;;;19.90;3.43;;;;;;;13.32;100.00;101020.88;5042394;28;20048;-84
2023/10/07 11:37:57;;;;;;;15.50;3.08;;;;;;;13.15;100.00;101012.84;5041235;28;20115;-83
2023/10/07 11:40:27;;;;;;;15.38;3.08;;;;;;;13.26;100.00;101027.75;5042438;28;20029;-83
2023/10/07 11:42:53;;;;;;;21.17;3.88;;;;;;;13.17;100.00;101023.41;5046422;28;20036;-83
2023/10/07 11:45:22;;;;;;;23.33;3.20;;;;;;;13.23;100.00;101033.47;5036686;28;20043;-82
2023/10/07 11:47:55;;;;;;;18.40;2.85;;;;;;;13.18;100.00;101039.34;5044850;28;20037;-83
2023/10/07 11:50:20;;;;;;;11.50;2.97;;;;;;;13.37;100.00;101069.44;5053967;28;20128;-83
2023/10/07 11:52:46;;;;;;;15.63;3.17;;;;;;;13.05;100.00;101050.56;5071797;23;20131;-79
2023/10/07 11:55:11;;;;;;;19.38;3.60;;;;;;;12.92;100.00;101039.53;5028194;28;20315;-78
2023/10/07 11:57:37;;;;;;;17.83;3.55;;;;;;;12.85;100.00;101035.88;5057240;28;20116;-79
2023/10/07 12:00:22;;;;;;;13.32;2.88;;;;;;;12.59;100.00;101014.66;5029865;28;20516;-79
2023/10/07 12:02:49;;;;;;;11.47;3.20;;;;;;;12.87;100.00;101034.69;5062635;28;20690;-81
2023/10/07 12:05:15;;;;;;;23.83;3.75;;;;;;;12.99;100.00;101027.13;5059292;28;20272;-81
2023/10/07 12:07:41;;;;;;;17.67;3.07;;;;;;;13.07;100.00;101039.69;5056099;28;20043;-81
2023/10/07 12:10:15;;;;;;;12.65;3.22;;;;;;;13.05;100.00;101037.19;5029896;28;20506;-80
2023/10/07 12:12:42;;;;;;;13.25;2.80;;;;;;;13.00;100.00;101033.34;5056873;28;20036;-81
2023/10/07 12:15:15;;;;;;;12.13;2.78;;;;;;;12.93;100.00;101043.91;5057408;28;20079;-82